Mildura, Australia
Current Conditions -  °F | °C
As of 10:00 PM on Sunday 23 Nov 2014 (Local Time) from YMIA Reporting Station
Clear Clear  
Wind Chill: 79°   Ceiling: Unl
Heat Index: 79°   Visibility: 6mi
Dew Point: 50°   Wind: 7mph
Humidity: 36%   Direction: 130°SE
Pressure: 29.8"   Gusts: NA
Location:  34.18°S, 142.17°E
Report Text: YMIA 231100Z AUTO 13006KT 070V160 9999 // NCD 26/10 Q1009
Loading
Personal Weather Stations






























Interactive Weather Map New forecast layout! Learn more

10-Day Weather Forecast

Advertisements
Track Severe Weather on mobile